createdAt,value
2023-02-27T00:00:41.513Z,50.20
2023-02-27T00:03:08.335Z,50.20
2023-02-27T00:05:35.226Z,50.30
2023-02-27T00:08:02.061Z,50.20
2023-02-27T00:10:29.059Z,50.10
2023-02-27T00:12:58.154Z,50.10
2023-02-27T00:15:32.135Z,50.20
2023-02-27T00:18:00.139Z,50.20
2023-02-27T00:20:32.327Z,50.30
2023-02-27T00:23:01.796Z,50.30
2023-02-27T00:25:28.713Z,50.30
2023-02-27T00:27:56.804Z,50.30
2023-02-27T00:30:23.758Z,50.40
2023-02-27T00:32:53.317Z,50.30
2023-02-27T00:35:20.709Z,50.30
2023-02-27T00:37:48.303Z,50.40
2023-02-27T00:40:15.523Z,50.40
2023-02-27T00:42:42.629Z,50.40
2023-02-27T00:45:10.214Z,50.40
2023-02-27T00:47:37.138Z,50.40
2023-02-27T00:50:04.986Z,50.50
2023-02-27T00:52:33.636Z,50.50
2023-02-27T00:55:03.291Z,50.50
2023-02-27T00:57:31.810Z,50.50
2023-02-27T01:00:00.776Z,50.60
2023-02-27T01:02:27.778Z,50.50
2023-02-27T01:04:54.660Z,50.50
2023-02-27T01:07:24.668Z,50.50
2023-02-27T01:09:51.477Z,50.50
2023-02-27T01:12:18.573Z,50.50
2023-02-27T01:14:45.455Z,50.50
2023-02-27T01:17:12.451Z,50.50
2023-02-27T01:19:39.488Z,50.50
2023-02-27T01:22:06.726Z,50.50
2023-02-27T01:24:38.838Z,50.50
2023-02-27T01:27:05.892Z,50.50
2023-02-27T01:29:32.909Z,50.50
2023-02-27T01:32:02.417Z,50.50
2023-02-27T01:34:29.758Z,50.50
2023-02-27T01:36:56.746Z,50.50
2023-02-27T01:39:23.750Z,50.40
2023-02-27T01:41:50.637Z,50.40
2023-02-27T01:44:22.389Z,50.50
2023-02-27T01:46:51.812Z,50.50
2023-02-27T01:49:29.407Z,50.40
2023-02-27T01:52:07.610Z,50.50
2023-02-27T01:54:40.857Z,50.60
2023-02-27T01:57:09.739Z,50.60
2023-02-27T01:59:44.130Z,50.60
2023-02-27T02:02:25.742Z,50.70
2023-02-27T02:04:54.066Z,50.80
2023-02-27T02:07:21.996Z,50.90
2023-02-27T02:09:57.838Z,50.80
2023-02-27T02:12:31.907Z,50.70
2023-02-27T02:14:58.872Z,50.70
2023-02-27T02:17:51.124Z,50.70
2023-02-27T02:20:39.069Z,50.70
2023-02-27T02:23:27.363Z,50.80
2023-02-27T02:26:33.202Z,50.70
2023-02-27T02:29:30.524Z,50.70
2023-02-27T02:32:34.592Z,50.70
2023-02-27T02:35:25.714Z,50.80
2023-02-27T02:38:25.072Z,50.80
2023-02-27T02:41:09.944Z,50.90
2023-02-27T02:44:04.441Z,50.80
2023-02-27T02:46:42.476Z,50.80
2023-02-27T02:49:34.045Z,50.70
2023-02-27T02:52:38.607Z,50.70
2023-02-27T02:55:25.012Z,50.80
2023-02-27T02:58:12.058Z,50.80
2023-02-27T03:00:55.335Z,50.90
2023-02-27T03:03:30.582Z,50.80
2023-02-27T03:06:27.819Z,50.80
2023-02-27T03:09:02.197Z,50.80
2023-02-27T03:11:36.576Z,50.80
2023-02-27T03:14:20.412Z,50.70
2023-02-27T03:16:53.211Z,50.70
2023-02-27T03:19:38.831Z,50.70
2023-02-27T03:22:13.698Z,50.70
2023-02-27T03:24:48.397Z,50.60
2023-02-27T03:27:20.497Z,50.60
2023-02-27T03:29:50.976Z,50.60
2023-02-27T03:32:56.891Z,50.60
2023-02-27T03:35:39.061Z,50.60
2023-02-27T03:38:16.999Z,50.70
2023-02-27T03:41:01.055Z,50.70
2023-02-27T03:43:47.648Z,50.70
2023-02-27T03:46:24.203Z,50.80
2023-02-27T03:48:55.986Z,50.70
2023-02-27T03:51:25.562Z,50.70
2023-02-27T03:54:20.075Z,50.80
2023-02-27T03:57:01.026Z,50.80
2023-02-27T03:59:29.574Z,50.80
2023-02-27T04:02:00.847Z,50.80
2023-02-27T04:04:32.595Z,50.90
2023-02-27T04:07:22.860Z,50.90
2023-02-27T04:10:58.814Z,50.90
2023-02-27T04:14:16.549Z,51.00
2023-02-27T04:17:10.884Z,51.10
2023-02-27T04:19:58.584Z,51.10
2023-02-27T04:22:51.810Z,51.20
2023-02-27T04:25:33.206Z,51.20
2023-02-27T04:28:15.708Z,51.10
2023-02-27T04:31:04.661Z,51.20
2023-02-27T04:33:45.305Z,51.30
2023-02-27T04:36:30.026Z,51.30
2023-02-27T04:39:30.454Z,51.30
2023-02-27T04:42:17.269Z,51.30
2023-02-27T04:44:48.732Z,51.40
2023-02-27T04:47:18.222Z,51.60
2023-02-27T04:50:11.099Z,51.50
2023-02-27T04:52:43.844Z,51.50
2023-02-27T04:55:35.953Z,51.50
2023-02-27T04:58:10.360Z,51.70
2023-02-27T05:00:40.258Z,51.60
2023-02-27T05:03:25.160Z,51.60
2023-02-27T05:05:58.245Z,51.60
2023-02-27T05:08:47.612Z,51.60
2023-02-27T05:11:34.979Z,51.70
2023-02-27T05:14:20.721Z,51.60
2023-02-27T05:16:59.113Z,51.70
2023-02-27T05:19:28.717Z,51.70
2023-02-27T05:22:11.409Z,51.60
2023-02-27T05:25:00.408Z,51.70
2023-02-27T05:27:59.146Z,51.70
2023-02-27T05:30:50.188Z,51.80
2023-02-27T05:34:06.489Z,51.70
2023-02-27T05:37:00.027Z,51.70
2023-02-27T05:39:30.482Z,51.80
2023-02-27T05:42:08.093Z,51.80
2023-02-27T05:44:41.367Z,51.70
2023-02-27T05:47:16.203Z,51.80
2023-02-27T05:49:51.428Z,51.70
2023-02-27T05:52:24.746Z,51.70
2023-02-27T05:55:24.051Z,51.70
2023-02-27T05:57:56.988Z,51.80
2023-02-27T06:00:37.621Z,51.70
2023-02-27T06:03:04.784Z,51.70
2023-02-27T06:05:31.975Z,51.70
2023-02-27T06:07:58.953Z,51.70
2023-02-27T06:10:28.558Z,51.70
2023-02-27T06:12:55.521Z,51.70
2023-02-27T06:15:25.412Z,51.80
2023-02-27T06:17:52.307Z,51.80
2023-02-27T06:20:19.253Z,51.70
2023-02-27T06:22:46.140Z,51.70
2023-02-27T06:25:13.325Z,51.70
2023-02-27T06:27:42.856Z,51.70
2023-02-27T06:30:10.495Z,51.80
2023-02-27T06:32:37.488Z,51.80
2023-02-27T06:35:06.307Z,51.80
2023-02-27T06:37:35.896Z,51.90
2023-02-27T06:40:04.888Z,51.80
2023-02-27T06:42:32.864Z,51.80
2023-02-27T06:45:02.268Z,51.80
2023-02-27T06:47:29.256Z,51.80
2023-02-27T06:49:56.122Z,51.80
2023-02-27T06:52:23.043Z,51.90
2023-02-27T06:54:54.486Z,51.90
2023-02-27T06:57:21.341Z,52.00
2023-02-27T06:59:48.244Z,51.90
2023-02-27T07:02:17.429Z,51.90
2023-02-27T07:04:44.946Z,51.90
2023-02-27T07:07:33.798Z,51.90
2023-02-27T07:10:03.702Z,51.80
2023-02-27T07:12:30.576Z,51.80
2023-02-27T07:14:57.451Z,51.80
2023-02-27T07:17:24.347Z,51.80
2023-02-27T07:19:51.167Z,51.80
2023-02-27T07:22:18.082Z,51.80
2023-02-27T07:24:44.981Z,51.90
2023-02-27T07:27:11.858Z,51.90
2023-02-27T07:29:38.789Z,51.90
2023-02-27T07:32:05.837Z,51.90
2023-02-27T07:34:35.730Z,51.90
2023-02-27T07:37:04.625Z,52.00
2023-02-27T07:39:34.220Z,52.00
2023-02-27T07:42:03.412Z,51.90
2023-02-27T07:44:33.062Z,51.90
2023-02-27T07:47:02.161Z,51.90
2023-02-27T07:49:31.509Z,51.80
2023-02-27T07:51:58.468Z,51.80
2023-02-27T07:54:25.455Z,51.70
2023-02-27T07:56:52.288Z,51.80
2023-02-27T07:59:19.314Z,51.80
2023-02-27T08:01:46.169Z,51.80
2023-02-27T08:04:15.130Z,51.80
2023-02-27T08:06:44.880Z,51.80
2023-02-27T08:09:11.799Z,51.70
2023-02-27T08:11:41.093Z,51.70
2023-02-27T08:14:10.205Z,51.70
2023-02-27T08:16:39.607Z,51.70
2023-02-27T08:19:06.592Z,52.30
2023-02-27T08:21:33.484Z,51.80
2023-02-27T08:24:02.883Z,52.30
2023-02-27T08:26:31.325Z,51.70
2023-02-27T08:29:02.963Z,51.50
2023-02-27T08:31:29.805Z,51.50
2023-02-27T08:34:04.573Z,51.70
2023-02-27T08:36:36.863Z,51.60
2023-02-27T08:39:04.583Z,51.60
2023-02-27T08:41:31.415Z,51.50
2023-02-27T08:44:00.663Z,51.50
2023-02-27T08:46:27.868Z,52.10
2023-02-27T08:48:54.971Z,51.40
2023-02-27T08:51:21.986Z,51.40
2023-02-27T08:53:48.798Z,51.40
2023-02-27T08:56:15.634Z,51.40
2023-02-27T08:58:42.537Z,51.50
2023-02-27T09:01:09.559Z,51.50
2023-02-27T09:03:37.406Z,51.40
2023-02-27T09:06:05.186Z,51.40
2023-02-27T09:08:32.299Z,51.40
2023-02-27T09:11:01.570Z,51.40
2023-02-27T09:13:28.873Z,51.40
2023-02-27T09:15:58.393Z,51.40
2023-02-27T09:18:25.348Z,51.40
2023-02-27T09:20:52.658Z,51.40
2023-02-27T09:23:22.882Z,51.40
2023-02-27T09:25:52.284Z,51.40
2023-02-27T09:28:24.745Z,51.50
2023-02-27T09:30:56.255Z,51.50
2023-02-27T09:33:24.657Z,52.10
2023-02-27T09:35:51.599Z,51.50
2023-02-27T09:38:21.211Z,51.50
2023-02-27T09:40:51.796Z,51.50
2023-02-27T09:43:27.876Z,51.40
2023-02-27T09:45:56.569Z,51.30
2023-02-27T09:48:39.112Z,51.40
2023-02-27T09:51:08.514Z,51.40
2023-02-27T09:53:49.324Z,52.00
2023-02-27T09:56:30.888Z,51.20
2023-02-27T09:59:35.536Z,51.10
2023-02-27T10:02:28.641Z,50.90
2023-02-27T10:05:39.513Z,51.00
2023-02-27T10:08:29.585Z,50.90
2023-02-27T10:11:06.256Z,51.00
2023-02-27T10:14:03.320Z,51.00
2023-02-27T10:16:35.441Z,50.90
2023-02-27T10:19:16.636Z,50.90
2023-02-27T10:21:51.087Z,50.80
2023-02-27T10:24:37.430Z,50.80
2023-02-27T10:27:07.674Z,50.70
2023-02-27T10:29:41.616Z,50.70
2023-02-27T10:32:18.518Z,50.70
2023-02-27T10:35:08.360Z,50.70
2023-02-27T10:37:37.511Z,50.60
2023-02-27T10:40:06.759Z,50.60
2023-02-27T10:42:38.847Z,50.70
2023-02-27T10:45:14.843Z,50.60
2023-02-27T10:47:42.689Z,50.60
2023-02-27T10:50:27.650Z,50.50
2023-02-27T10:53:05.172Z,50.30
2023-02-27T10:55:36.783Z,50.40
2023-02-27T10:58:05.396Z,50.30
2023-02-27T11:00:47.883Z,50.20
2023-02-27T11:03:34.245Z,50.30
2023-02-27T11:06:25.395Z,50.20
2023-02-27T11:09:21.550Z,50.00
2023-02-27T11:11:49.573Z,49.80
2023-02-27T11:14:36.312Z,49.90
2023-02-27T11:17:03.881Z,49.60
2023-02-27T11:19:38.390Z,49.70
2023-02-27T11:22:23.562Z,49.50
2023-02-27T11:24:53.628Z,49.60
2023-02-27T11:27:30.418Z,49.40
2023-02-27T11:30:09.406Z,49.50
2023-02-27T11:32:44.944Z,49.50
2023-02-27T11:35:37.626Z,49.50
2023-02-27T11:38:08.887Z,49.30
2023-02-27T11:40:50.333Z,49.50
2023-02-27T11:43:27.006Z,49.40
2023-02-27T11:46:36.157Z,49.40
2023-02-27T11:49:35.289Z,49.30
2023-02-27T11:52:30.046Z,49.10
2023-02-27T11:55:03.286Z,49.20
2023-02-27T11:57:40.358Z,49.20
2023-02-27T12:00:39.535Z,49.20
2023-02-27T12:03:32.623Z,49.00
2023-02-27T12:06:11.345Z,49.10
2023-02-27T12:09:07.118Z,49.20
2023-02-27T12:11:44.516Z,49.00
2023-02-27T12:14:25.519Z,49.10
2023-02-27T12:16:59.382Z,49.10
2023-02-27T12:20:20.660Z,49.20
2023-02-27T12:22:51.858Z,49.00
2023-02-27T12:25:36.428Z,49.30
2023-02-27T12:28:17.254Z,49.00
2023-02-27T12:31:06.290Z,49.10
2023-02-27T12:33:50.095Z,49.10
2023-02-27T12:36:19.398Z,49.10
2023-02-27T12:38:49.032Z,49.10
2023-02-27T12:41:34.037Z,49.10
2023-02-27T12:44:46.065Z,49.10
2023-02-27T12:47:56.193Z,48.90
2023-02-27T12:50:26.106Z,49.00
2023-02-27T12:53:20.610Z,49.10
2023-02-27T12:56:25.194Z,49.10
2023-02-27T12:59:03.617Z,48.90
2023-02-27T13:01:48.286Z,49.10
2023-02-27T13:04:20.354Z,49.00
2023-02-27T13:07:13.847Z,49.00
2023-02-27T13:09:40.679Z,48.70
2023-02-27T13:12:07.514Z,48.90
2023-02-27T13:14:40.006Z,48.90
2023-02-27T13:17:54.769Z,48.80
2023-02-27T13:20:21.628Z,48.60
2023-02-27T13:22:56.878Z,48.80
2023-02-27T13:25:27.876Z,48.70
2023-02-27T13:28:02.996Z,48.50
2023-02-27T13:30:32.469Z,48.40
2023-02-27T13:33:26.423Z,48.40
2023-02-27T13:36:26.809Z,48.30
2023-02-27T13:39:02.855Z,48.20
2023-02-27T13:41:36.073Z,48.40
2023-02-27T13:44:21.113Z,48.50
2023-02-27T13:46:48.378Z,48.30
2023-02-27T13:49:30.186Z,48.40
2023-02-27T13:52:04.947Z,48.10
2023-02-27T13:54:42.185Z,48.20
2023-02-27T13:57:22.578Z,48.30
2023-02-27T13:59:58.162Z,48.30
2023-02-27T14:02:31.115Z,48.40
2023-02-27T14:05:03.694Z,48.30
2023-02-27T14:08:08.211Z,48.20
2023-02-27T14:10:37.566Z,48.20
2023-02-27T14:13:05.259Z,48.20
2023-02-27T14:15:35.771Z,48.20
2023-02-27T14:18:15.918Z,48.10
2023-02-27T14:20:44.726Z,48.00
2023-02-27T14:23:20.607Z,47.80
2023-02-27T14:26:00.005Z,47.60
2023-02-27T14:28:46.088Z,47.50
2023-02-27T14:31:28.754Z,47.30
2023-02-27T14:34:04.993Z,47.10
2023-02-27T14:37:07.166Z,47.20
2023-02-27T14:39:40.645Z,46.80
2023-02-27T14:42:16.326Z,46.90
2023-02-27T14:44:48.396Z,46.90
2023-02-27T14:47:27.567Z,46.80
2023-02-27T14:49:56.198Z,46.60
2023-02-27T14:52:29.810Z,46.70
2023-02-27T14:55:27.993Z,46.80
2023-02-27T14:58:25.027Z,46.60
2023-02-27T15:01:08.485Z,46.50
2023-02-27T15:03:42.104Z,46.70
2023-02-27T15:06:34.942Z,46.80
2023-02-27T15:09:04.931Z,46.60
2023-02-27T15:11:32.159Z,46.70
2023-02-27T15:14:04.625Z,46.60
2023-02-27T15:16:39.763Z,46.50
2023-02-27T15:19:24.802Z,46.60
2023-02-27T15:22:04.036Z,47.10
2023-02-27T15:24:49.548Z,46.40
2023-02-27T15:27:21.631Z,46.20
2023-02-27T15:30:03.910Z,46.30
2023-02-27T15:32:31.833Z,46.00
2023-02-27T15:35:05.049Z,46.10
2023-02-27T15:37:34.665Z,46.10
2023-02-27T15:40:06.431Z,46.10
2023-02-27T15:42:36.489Z,46.00
2023-02-27T15:45:07.351Z,46.10
2023-02-27T15:47:37.842Z,46.10
2023-02-27T15:50:26.667Z,46.10
2023-02-27T15:53:19.215Z,45.90
2023-02-27T15:55:59.328Z,45.80
2023-02-27T15:58:27.790Z,45.90
2023-02-27T16:01:26.044Z,46.00
2023-02-27T16:03:56.390Z,45.90
2023-02-27T16:06:27.933Z,46.10
2023-02-27T16:08:57.023Z,46.20
2023-02-27T16:11:30.558Z,46.20
2023-02-27T16:14:02.922Z,46.90
2023-02-27T16:16:38.730Z,46.30
2023-02-27T16:19:29.380Z,46.20
2023-02-27T16:22:18.906Z,46.00
2023-02-27T16:24:46.877Z,45.80
2023-02-27T16:27:29.343Z,46.10
2023-02-27T16:30:03.056Z,46.00
2023-02-27T16:32:38.992Z,46.00
2023-02-27T16:35:23.955Z,45.80
2023-02-27T16:37:55.027Z,45.60
2023-02-27T16:40:25.963Z,45.80
2023-02-27T16:42:53.711Z,45.80
2023-02-27T16:45:28.193Z,45.90
2023-02-27T16:47:58.758Z,45.80
2023-02-27T16:50:43.082Z,45.90
2023-02-27T16:53:10.057Z,45.90
2023-02-27T16:55:41.046Z,46.10
2023-02-27T16:58:12.722Z,46.10
2023-02-27T17:00:39.484Z,46.10
2023-02-27T17:03:06.400Z,45.90
2023-02-27T17:05:37.452Z,46.20
2023-02-27T17:08:04.719Z,46.10
2023-02-27T17:10:31.634Z,46.20
2023-02-27T17:12:58.488Z,46.20
2023-02-27T17:15:27.618Z,46.00
2023-02-27T17:17:56.926Z,46.70
2023-02-27T17:20:27.962Z,46.10
2023-02-27T17:22:54.886Z,46.10
2023-02-27T17:25:21.955Z,46.10
2023-02-27T17:27:49.577Z,46.80
2023-02-27T17:30:16.591Z,46.80
2023-02-27T17:32:43.520Z,46.20
2023-02-27T17:35:11.258Z,46.20
2023-02-27T17:37:38.450Z,46.10
2023-02-27T17:40:09.341Z,46.20
2023-02-27T17:42:36.999Z,46.30
2023-02-27T17:45:14.484Z,46.40
2023-02-27T17:47:41.645Z,46.40
2023-02-27T17:50:13.207Z,46.40
2023-02-27T17:52:40.092Z,46.50
2023-02-27T17:55:10.542Z,46.50
2023-02-27T17:57:39.469Z,46.70
2023-02-27T18:00:15.894Z,46.70
2023-02-27T18:02:48.425Z,46.80
2023-02-27T18:05:18.568Z,46.80
2023-02-27T18:07:48.121Z,46.90
2023-02-27T18:10:15.768Z,47.00
2023-02-27T18:12:43.151Z,47.10
2023-02-27T18:15:13.468Z,47.10
2023-02-27T18:17:40.328Z,47.20
2023-02-27T18:20:08.200Z,47.20
2023-02-27T18:22:37.336Z,47.20
2023-02-27T18:25:07.207Z,47.20
2023-02-27T18:27:39.134Z,47.30
2023-02-27T18:30:10.141Z,47.40
2023-02-27T18:32:40.062Z,47.40
2023-02-27T18:35:12.060Z,47.50
2023-02-27T18:37:41.853Z,47.60
2023-02-27T18:40:09.979Z,47.70
2023-02-27T18:42:36.946Z,47.80
2023-02-27T18:45:04.741Z,47.90
2023-02-27T18:47:34.442Z,48.00
2023-02-27T18:50:03.789Z,48.00
2023-02-27T18:52:31.581Z,48.10
2023-02-27T18:55:01.922Z,48.20
2023-02-27T18:57:31.140Z,48.20
2023-02-27T18:59:58.025Z,48.30
2023-02-27T19:02:26.661Z,48.20
2023-02-27T19:04:53.598Z,48.40
2023-02-27T19:07:22.329Z,48.40
2023-02-27T19:09:49.504Z,48.50
2023-02-27T19:12:17.376Z,48.40
2023-02-27T19:14:44.392Z,48.50
2023-02-27T19:17:13.813Z,48.50
2023-02-27T19:19:40.686Z,48.50
2023-02-27T19:22:07.569Z,48.50
2023-02-27T19:24:34.470Z,48.50
2023-02-27T19:27:03.649Z,48.50
2023-02-27T19:29:34.277Z,48.60
2023-02-27T19:32:07.533Z,48.50
2023-02-27T19:34:37.023Z,48.50
2023-02-27T19:37:06.384Z,48.50
2023-02-27T19:39:33.338Z,48.60
2023-02-27T19:42:00.548Z,48.60
2023-02-27T19:44:29.921Z,48.60
2023-02-27T19:46:56.876Z,48.70
2023-02-27T19:49:26.294Z,48.80
2023-02-27T19:51:55.625Z,48.80
2023-02-27T19:54:22.515Z,48.80
2023-02-27T19:56:49.561Z,48.90
2023-02-27T19:59:21.985Z,49.00
2023-02-27T20:01:48.919Z,49.10
2023-02-27T20:04:17.691Z,49.10
2023-02-27T20:06:50.586Z,49.20
2023-02-27T20:09:23.384Z,49.30
2023-02-27T20:12:00.141Z,49.40
2023-02-27T20:14:29.775Z,49.40
2023-02-27T20:16:59.242Z,49.50
2023-02-27T20:19:26.280Z,49.50
2023-02-27T20:21:56.572Z,49.50
2023-02-27T20:24:24.585Z,49.60
2023-02-27T20:26:53.508Z,49.70
2023-02-27T20:29:27.829Z,49.70
2023-02-27T20:31:57.154Z,49.70
2023-02-27T20:34:28.868Z,49.70
2023-02-27T20:36:57.012Z,49.80
2023-02-27T20:39:24.682Z,50.00
2023-02-27T20:41:51.622Z,49.80
2023-02-27T20:44:18.632Z,49.70
2023-02-27T20:46:49.180Z,49.80
2023-02-27T20:49:19.796Z,49.90
2023-02-27T20:51:49.542Z,50.00
2023-02-27T20:54:22.364Z,50.00
2023-02-27T20:56:55.215Z,50.00
2023-02-27T20:59:25.259Z,50.00
2023-02-27T21:01:53.274Z,50.10
2023-02-27T21:04:25.535Z,50.10
2023-02-27T21:06:53.169Z,50.10
2023-02-27T21:09:20.088Z,50.20
2023-02-27T21:11:47.052Z,50.20
2023-02-27T21:14:14.543Z,50.20
2023-02-27T21:16:44.162Z,50.30
2023-02-27T21:19:14.880Z,50.30
2023-02-27T21:21:41.772Z,50.90
2023-02-27T21:24:11.104Z,50.30
2023-02-27T21:26:39.571Z,50.40
2023-02-27T21:29:14.034Z,50.30
2023-02-27T21:31:45.419Z,50.30
2023-02-27T21:34:32.225Z,50.30
2023-02-27T21:37:02.800Z,50.20
2023-02-27T21:39:34.852Z,50.20
2023-02-27T21:42:01.777Z,50.20
2023-02-27T21:44:31.926Z,50.20
2023-02-27T21:47:09.854Z,50.10
2023-02-27T21:49:39.357Z,50.10
2023-02-27T21:52:06.627Z,50.20
2023-02-27T21:54:34.030Z,50.20
2023-02-27T21:57:03.670Z,50.20
2023-02-27T21:59:31.303Z,50.90
2023-02-27T22:02:02.529Z,50.20
2023-02-27T22:04:29.475Z,50.20
2023-02-27T22:06:58.882Z,50.20
2023-02-27T22:09:30.214Z,50.20
2023-02-27T22:11:57.784Z,50.30
2023-02-27T22:14:28.345Z,50.30
2023-02-27T22:16:57.825Z,50.20
2023-02-27T22:19:24.689Z,50.20
2023-02-27T22:21:51.653Z,50.30
2023-02-27T22:24:18.604Z,50.30
2023-02-27T22:26:45.762Z,50.30
2023-02-27T22:29:12.849Z,50.30
2023-02-27T22:31:42.313Z,50.30
2023-02-27T22:34:18.673Z,50.30
2023-02-27T22:36:52.715Z,50.40
2023-02-27T22:39:22.008Z,50.40
2023-02-27T22:41:49.636Z,50.40
2023-02-27T22:44:19.323Z,50.40
2023-02-27T22:46:51.274Z,51.10
2023-02-27T22:49:23.627Z,50.40
2023-02-27T22:51:53.194Z,50.50
2023-02-27T22:54:25.802Z,50.60
2023-02-27T22:56:56.937Z,50.60
2023-02-27T22:59:25.494Z,50.50
2023-02-27T23:01:54.908Z,50.60
2023-02-27T23:04:22.296Z,50.60
2023-02-27T23:06:52.183Z,50.60
2023-02-27T23:09:22.126Z,50.60
2023-02-27T23:11:49.042Z,50.60
2023-02-27T23:14:18.872Z,50.60
2023-02-27T23:16:48.384Z,50.70
2023-02-27T23:19:20.801Z,50.70
2023-02-27T23:21:50.841Z,50.80
2023-02-27T23:24:21.838Z,50.80
2023-02-27T23:26:51.385Z,50.80
2023-02-27T23:29:18.585Z,50.80
2023-02-27T23:31:47.751Z,50.80
2023-02-27T23:34:14.764Z,50.80
2023-02-27T23:36:43.776Z,50.80
2023-02-27T23:39:10.884Z,50.80
2023-02-27T23:41:40.336Z,50.80
2023-02-27T23:44:12.917Z,50.90
2023-02-27T23:46:42.445Z,50.90
2023-02-27T23:49:15.875Z,50.90
2023-02-27T23:51:42.729Z,51.00
2023-02-27T23:54:10.577Z,51.00
2023-02-27T23:56:37.535Z,51.10
2023-02-27T23:59:08.410Z,51.20
